Terminal Aerodrome Forecast
Issued by NWS

Home | Current Version | Previous Version | Text Only | Print | Product List | Glossary On
Versions: 1 2 3 4 5 6 7 8 9 10 11 12 13 14 15 16 17
953
FTUS41 KAKQ 240539
TAFPHF
TAF
KPHF 240539Z 2406/2506 16014G20KT P6SM -RA BKN040 OVC100
     FM240700 17014KT 4SM SHRA OVC040 WS020/17045KT
     FM240900 18014G21KT P6SM VCSH OVC025
     FM241100 19012KT P6SM VCSH BKN020
     FM241400 20012G19KT P6SM BKN050
     FM250100 22005KT P6SM SKC=

USA.gov is the U.S. government's official web portal to all federal, state and local government web resources and services.